sensor_id;sensor_type;location;lat;lon;timestamp;P1;durP1;ratioP1;P2;durP2;ratioP2
11533;SDS011;5823;50.588;8.462;2023-11-19T00:01:13;0.10;;;0.10;;
11533;SDS011;5823;50.588;8.462;2023-11-19T00:03:41;0.20;;;0.20;;
11533;SDS011;5823;50.588;8.462;2023-11-19T00:06:08;0.25;;;0.25;;
11533;SDS011;5823;50.588;8.462;2023-11-19T00:08:36;0.10;;;0.10;;
11533;SDS011;5823;50.588;8.462;2023-11-19T00:11:02;0.20;;;0.20;;
11533;SDS011;5823;50.588;8.462;2023-11-19T00:13:29;0.57;;;0.38;;
11533;SDS011;5823;50.588;8.462;2023-11-19T00:15:55;0.22;;;0.22;;
11533;SDS011;5823;50.588;8.462;2023-11-19T00:18:21;0.13;;;0.13;;
11533;SDS011;5823;50.588;8.462;2023-11-19T00:20:48;0.25;;;0.25;;
11533;SDS011;5823;50.588;8.462;2023-11-19T00:23:15;0.17;;;0.17;;
11533;SDS011;5823;50.588;8.462;2023-11-19T00:25:42;0.22;;;0.22;;
11533;SDS011;5823;50.588;8.462;2023-11-19T00:28:08;0.15;;;0.15;;
11533;SDS011;5823;50.588;8.462;2023-11-19T00:30:34;0.28;;;0.28;;
11533;SDS011;5823;50.588;8.462;2023-11-19T00:33:00;0.10;;;0.10;;
11533;SDS011;5823;50.588;8.462;2023-11-19T00:35:27;0.10;;;0.10;;
11533;SDS011;5823;50.588;8.462;2023-11-19T00:37:53;0.10;;;0.10;;
11533;SDS011;5823;50.588;8.462;2023-11-19T00:40:21;0.45;;;0.45;;
11533;SDS011;5823;50.588;8.462;2023-11-19T00:42:48;0.32;;;0.32;;
11533;SDS011;5823;50.588;8.462;2023-11-19T00:45:14;0.20;;;0.20;;
11533;SDS011;5823;50.588;8.462;2023-11-19T00:47:40;0.32;;;0.20;;
11533;SDS011;5823;50.588;8.462;2023-11-19T00:50:07;0.25;;;0.25;;
11533;SDS011;5823;50.588;8.462;2023-11-19T00:52:35;0.10;;;0.10;;
11533;SDS011;5823;50.588;8.462;2023-11-19T00:55:02;0.20;;;0.20;;
11533;SDS011;5823;50.588;8.462;2023-11-19T00:57:29;0.25;;;0.25;;
11533;SDS011;5823;50.588;8.462;2023-11-19T00:59:55;0.10;;;0.10;;
11533;SDS011;5823;50.588;8.462;2023-11-19T01:02:21;0.20;;;0.20;;
11533;SDS011;5823;50.588;8.462;2023-11-19T01:04:48;0.10;;;0.10;;
11533;SDS011;5823;50.588;8.462;2023-11-19T01:07:14;0.10;;;0.10;;
11533;SDS011;5823;50.588;8.462;2023-11-19T01:09:41;0.15;;;0.15;;
11533;SDS011;5823;50.588;8.462;2023-11-19T01:12:07;0.15;;;0.15;;
11533;SDS011;5823;50.588;8.462;2023-11-19T01:14:35;0.30;;;0.30;;
11533;SDS011;5823;50.588;8.462;2023-11-19T01:17:01;0.10;;;0.10;;
11533;SDS011;5823;50.588;8.462;2023-11-19T01:19:28;0.20;;;0.20;;
11533;SDS011;5823;50.588;8.462;2023-11-19T01:21:54;0.10;;;0.10;;
11533;SDS011;5823;50.588;8.462;2023-11-19T01:24:21;0.10;;;0.10;;
11533;SDS011;5823;50.588;8.462;2023-11-19T01:26:47;0.20;;;0.20;;
11533;SDS011;5823;50.588;8.462;2023-11-19T01:29:14;0.30;;;0.30;;
11533;SDS011;5823;50.588;8.462;2023-11-19T01:31:42;0.28;;;0.28;;
11533;SDS011;5823;50.588;8.462;2023-11-19T01:34:08;0.05;;;0.05;;
11533;SDS011;5823;50.588;8.462;2023-11-19T01:36:35;0.10;;;0.10;;
11533;SDS011;5823;50.588;8.462;2023-11-19T01:39:01;0.20;;;0.20;;
11533;SDS011;5823;50.588;8.462;2023-11-19T01:41:29;0.20;;;0.20;;
11533;SDS011;5823;50.588;8.462;2023-11-19T01:43:55;0.20;;;0.20;;
11533;SDS011;5823;50.588;8.462;2023-11-19T01:46:21;0.10;;;0.10;;
11533;SDS011;5823;50.588;8.462;2023-11-19T01:48:49;0.30;;;0.30;;
11533;SDS011;5823;50.588;8.462;2023-11-19T01:51:15;0.17;;;0.17;;
11533;SDS011;5823;50.588;8.462;2023-11-19T01:53:42;0.20;;;0.20;;
11533;SDS011;5823;50.588;8.462;2023-11-19T01:56:09;0.25;;;0.25;;
11533;SDS011;5823;50.588;8.462;2023-11-19T01:58:37;0.30;;;0.30;;
11533;SDS011;5823;50.588;8.462;2023-11-19T02:01:05;0.20;;;0.20;;
11533;SDS011;5823;50.588;8.462;2023-11-19T02:03:32;0.20;;;0.20;;
11533;SDS011;5823;50.588;8.462;2023-11-19T02:06:00;0.20;;;0.20;;
11533;SDS011;5823;50.588;8.462;2023-11-19T02:08:26;0.28;;;0.28;;
11533;SDS011;5823;50.588;8.462;2023-11-19T02:10:53;0.10;;;0.10;;
11533;SDS011;5823;50.588;8.462;2023-11-19T02:13:21;0.10;;;0.10;;
11533;SDS011;5823;50.588;8.462;2023-11-19T02:15:48;0.15;;;0.15;;
11533;SDS011;5823;50.588;8.462;2023-11-19T02:18:17;0.17;;;0.15;;
11533;SDS011;5823;50.588;8.462;2023-11-19T02:20:43;0.20;;;0.20;;
11533;SDS011;5823;50.588;8.462;2023-11-19T02:23:12;0.25;;;0.25;;
11533;SDS011;5823;50.588;8.462;2023-11-19T02:25:39;0.20;;;0.20;;
11533;SDS011;5823;50.588;8.462;2023-11-19T02:28:07;0.28;;;0.28;;
11533;SDS011;5823;50.588;8.462;2023-11-19T02:30:36;0.13;;;0.13;;
11533;SDS011;5823;50.588;8.462;2023-11-19T02:33:03;0.17;;;0.10;;
11533;SDS011;5823;50.588;8.462;2023-11-19T02:35:30;0.15;;;0.15;;
11533;SDS011;5823;50.588;8.462;2023-11-19T02:37:57;0.20;;;0.20;;
11533;SDS011;5823;50.588;8.462;2023-11-19T02:40:24;0.20;;;0.20;;
11533;SDS011;5823;50.588;8.462;2023-11-19T02:42:50;0.13;;;0.10;;
11533;SDS011;5823;50.588;8.462;2023-11-19T02:45:18;0.10;;;0.10;;
11533;SDS011;5823;50.588;8.462;2023-11-19T02:47:44;0.30;;;0.30;;
11533;SDS011;5823;50.588;8.462;2023-11-19T02:50:11;0.20;;;0.20;;
11533;SDS011;5823;50.588;8.462;2023-11-19T02:52:39;0.20;;;0.20;;
11533;SDS011;5823;50.588;8.462;2023-11-19T02:55:06;0.30;;;0.30;;
11533;SDS011;5823;50.588;8.462;2023-11-19T02:57:34;0.10;;;0.10;;
11533;SDS011;5823;50.588;8.462;2023-11-19T03:00:01;0.20;;;0.20;;
11533;SDS011;5823;50.588;8.462;2023-11-19T03:02:38;0.10;;;0.10;;
11533;SDS011;5823;50.588;8.462;2023-11-19T03:05:09;0.32;;;0.32;;
11533;SDS011;5823;50.588;8.462;2023-11-19T03:07:36;0.20;;;0.20;;
11533;SDS011;5823;50.588;8.462;2023-11-19T03:10:02;0.10;;;0.10;;
11533;SDS011;5823;50.588;8.462;2023-11-19T03:12:30;0.10;;;0.10;;
11533;SDS011;5823;50.588;8.462;2023-11-19T03:14:57;0.20;;;0.20;;
11533;SDS011;5823;50.588;8.462;2023-11-19T03:17:23;0.20;;;0.20;;
11533;SDS011;5823;50.588;8.462;2023-11-19T03:19:51;0.50;;;0.50;;
11533;SDS011;5823;50.588;8.462;2023-11-19T03:22:17;0.20;;;0.20;;
11533;SDS011;5823;50.588;8.462;2023-11-19T03:24:44;0.20;;;0.20;;
11533;SDS011;5823;50.588;8.462;2023-11-19T03:27:10;0.17;;;0.17;;
11533;SDS011;5823;50.588;8.462;2023-11-19T03:29:36;0.20;;;0.20;;
11533;SDS011;5823;50.588;8.462;2023-11-19T03:32:03;0.15;;;0.15;;
11533;SDS011;5823;50.588;8.462;2023-11-19T03:34:30;0.30;;;0.30;;
11533;SDS011;5823;50.588;8.462;2023-11-19T03:36:57;0.20;;;0.20;;
11533;SDS011;5823;50.588;8.462;2023-11-19T03:39:23;0.20;;;0.20;;
11533;SDS011;5823;50.588;8.462;2023-11-19T03:41:52;0.20;;;0.20;;
11533;SDS011;5823;50.588;8.462;2023-11-19T03:44:18;0.30;;;0.30;;
11533;SDS011;5823;50.588;8.462;2023-11-19T03:46:44;0.20;;;0.20;;
11533;SDS011;5823;50.588;8.462;2023-11-19T03:49:11;0.15;;;0.15;;
11533;SDS011;5823;50.588;8.462;2023-11-19T03:51:37;0.30;;;0.30;;
11533;SDS011;5823;50.588;8.462;2023-11-19T03:54:05;0.30;;;0.30;;
11533;SDS011;5823;50.588;8.462;2023-11-19T03:56:32;0.20;;;0.20;;
11533;SDS011;5823;50.588;8.462;2023-11-19T03:58:59;0.20;;;0.20;;
11533;SDS011;5823;50.588;8.462;2023-11-19T04:01:25;0.30;;;0.30;;
11533;SDS011;5823;50.588;8.462;2023-11-19T04:03:51;0.17;;;0.17;;
11533;SDS011;5823;50.588;8.462;2023-11-19T04:06:17;0.10;;;0.10;;
11533;SDS011;5823;50.588;8.462;2023-11-19T04:08:44;0.10;;;0.10;;
11533;SDS011;5823;50.588;8.462;2023-11-19T04:11:11;0.13;;;0.13;;
11533;SDS011;5823;50.588;8.462;2023-11-19T04:13:38;0.20;;;0.20;;
11533;SDS011;5823;50.588;8.462;2023-11-19T04:16:04;0.10;;;0.10;;
11533;SDS011;5823;50.588;8.462;2023-11-19T04:18:30;0.13;;;0.13;;
11533;SDS011;5823;50.588;8.462;2023-11-19T04:20:57;0.10;;;0.10;;
11533;SDS011;5823;50.588;8.462;2023-11-19T04:23:24;0.20;;;0.20;;
11533;SDS011;5823;50.588;8.462;2023-11-19T04:25:50;0.15;;;0.15;;
11533;SDS011;5823;50.588;8.462;2023-11-19T04:28:18;0.25;;;0.25;;
11533;SDS011;5823;50.588;8.462;2023-11-19T04:30:44;0.30;;;0.30;;
11533;SDS011;5823;50.588;8.462;2023-11-19T04:33:11;0.15;;;0.15;;
11533;SDS011;5823;50.588;8.462;2023-11-19T04:35:37;0.22;;;0.22;;
11533;SDS011;5823;50.588;8.462;2023-11-19T04:38:03;0.35;;;0.35;;
11533;SDS011;5823;50.588;8.462;2023-11-19T04:40:30;0.25;;;0.20;;
11533;SDS011;5823;50.588;8.462;2023-11-19T04:42:56;0.20;;;0.20;;
11533;SDS011;5823;50.588;8.462;2023-11-19T04:45:24;0.10;;;0.10;;
11533;SDS011;5823;50.588;8.462;2023-11-19T04:47:50;0.20;;;0.20;;
11533;SDS011;5823;50.588;8.462;2023-11-19T04:50:16;0.22;;;0.22;;
11533;SDS011;5823;50.588;8.462;2023-11-19T04:52:43;0.10;;;0.10;;
11533;SDS011;5823;50.588;8.462;2023-11-19T04:55:10;0.20;;;0.20;;
11533;SDS011;5823;50.588;8.462;2023-11-19T04:57:37;0.22;;;0.22;;
11533;SDS011;5823;50.588;8.462;2023-11-19T05:00:04;0.20;;;0.20;;
11533;SDS011;5823;50.588;8.462;2023-11-19T05:02:33;0.20;;;0.20;;
11533;SDS011;5823;50.588;8.462;2023-11-19T05:05:00;0.10;;;0.10;;
11533;SDS011;5823;50.588;8.462;2023-11-19T05:07:26;0.20;;;0.20;;
11533;SDS011;5823;50.588;8.462;2023-11-19T05:09:52;0.13;;;0.10;;
11533;SDS011;5823;50.588;8.462;2023-11-19T05:12:18;0.10;;;0.10;;
11533;SDS011;5823;50.588;8.462;2023-11-19T05:14:45;0.13;;;0.13;;
11533;SDS011;5823;50.588;8.462;2023-11-19T05:17:14;0.10;;;0.10;;
11533;SDS011;5823;50.588;8.462;2023-11-19T05:19:42;0.17;;;0.17;;
11533;SDS011;5823;50.588;8.462;2023-11-19T05:22:08;0.45;;;0.20;;
11533;SDS011;5823;50.588;8.462;2023-11-19T05:24:34;0.00;;;0.00;;
11533;SDS011;5823;50.588;8.462;2023-11-19T05:27:00;0.10;;;0.10;;
11533;SDS011;5823;50.588;8.462;2023-11-19T05:29:27;0.10;;;0.10;;
11533;SDS011;5823;50.588;8.462;2023-11-19T05:31:53;0.13;;;0.13;;
11533;SDS011;5823;50.588;8.462;2023-11-19T05:34:20;0.05;;;0.05;;
11533;SDS011;5823;50.588;8.462;2023-11-19T05:36:47;0.10;;;0.10;;
11533;SDS011;5823;50.588;8.462;2023-11-19T05:39:14;0.10;;;0.10;;
11533;SDS011;5823;50.588;8.462;2023-11-19T05:41:41;0.10;;;0.10;;
11533;SDS011;5823;50.588;8.462;2023-11-19T05:44:07;0.20;;;0.20;;
11533;SDS011;5823;50.588;8.462;2023-11-19T05:46:33;0.10;;;0.10;;
11533;SDS011;5823;50.588;8.462;2023-11-19T05:49:05;0.10;;;0.10;;
11533;SDS011;5823;50.588;8.462;2023-11-19T05:51:31;0.22;;;0.22;;
11533;SDS011;5823;50.588;8.462;2023-11-19T05:53:59;0.15;;;0.15;;
11533;SDS011;5823;50.588;8.462;2023-11-19T05:56:25;0.00;;;0.00;;
11533;SDS011;5823;50.588;8.462;2023-11-19T05:58:57;0.20;;;0.20;;
11533;SDS011;5823;50.588;8.462;2023-11-19T06:01:25;0.20;;;0.20;;
11533;SDS011;5823;50.588;8.462;2023-11-19T06:03:51;0.00;;;0.00;;
11533;SDS011;5823;50.588;8.462;2023-11-19T06:06:18;0.10;;;0.10;;
11533;SDS011;5823;50.588;8.462;2023-11-19T06:08:44;0.00;;;0.00;;
11533;SDS011;5823;50.588;8.462;2023-11-19T06:11:11;0.10;;;0.10;;
11533;SDS011;5823;50.588;8.462;2023-11-19T06:13:43;0.20;;;0.20;;
11533;SDS011;5823;50.588;8.462;2023-11-19T06:16:09;0.00;;;0.00;;
11533;SDS011;5823;50.588;8.462;2023-11-19T06:18:36;0.10;;;0.10;;
11533;SDS011;5823;50.588;8.462;2023-11-19T06:21:02;0.00;;;0.00;;
11533;SDS011;5823;50.588;8.462;2023-11-19T06:23:28;0.10;;;0.10;;
11533;SDS011;5823;50.588;8.462;2023-11-19T06:25:55;0.10;;;0.10;;
11533;SDS011;5823;50.588;8.462;2023-11-19T06:28:22;0.10;;;0.10;;
11533;SDS011;5823;50.588;8.462;2023-11-19T06:30:48;0.40;;;0.38;;
11533;SDS011;5823;50.588;8.462;2023-11-19T06:33:15;0.40;;;0.40;;
11533;SDS011;5823;50.588;8.462;2023-11-19T06:35:41;0.40;;;0.38;;
11533;SDS011;5823;50.588;8.462;2023-11-19T06:38:08;0.20;;;0.20;;
11533;SDS011;5823;50.588;8.462;2023-11-19T06:40:34;0.50;;;0.20;;
11533;SDS011;5823;50.588;8.462;2023-11-19T06:43:01;0.38;;;0.25;;
11533;SDS011;5823;50.588;8.462;2023-11-19T06:45:29;0.20;;;0.20;;
11533;SDS011;5823;50.588;8.462;2023-11-19T06:47:56;0.00;;;0.00;;
11533;SDS011;5823;50.588;8.462;2023-11-19T06:50:23;0.13;;;0.13;;
11533;SDS011;5823;50.588;8.462;2023-11-19T06:52:50;0.00;;;0.00;;
11533;SDS011;5823;50.588;8.462;2023-11-19T06:55:16;0.10;;;0.10;;
11533;SDS011;5823;50.588;8.462;2023-11-19T06:57:42;0.00;;;0.00;;
11533;SDS011;5823;50.588;8.462;2023-11-19T07:00:09;0.00;;;0.00;;
11533;SDS011;5823;50.588;8.462;2023-11-19T07:02:37;0.05;;;0.05;;
11533;SDS011;5823;50.588;8.462;2023-11-19T07:05:04;0.08;;;0.08;;
11533;SDS011;5823;50.588;8.462;2023-11-19T07:07:30;0.10;;;0.10;;
11533;SDS011;5823;50.588;8.462;2023-11-19T07:09:57;0.00;;;0.00;;
11533;SDS011;5823;50.588;8.462;2023-11-19T07:12:23;0.10;;;0.10;;
11533;SDS011;5823;50.588;8.462;2023-11-19T07:14:51;0.00;;;0.00;;
11533;SDS011;5823;50.588;8.462;2023-11-19T07:17:18;0.00;;;0.00;;
11533;SDS011;5823;50.588;8.462;2023-11-19T07:19:46;0.10;;;0.10;;
11533;SDS011;5823;50.588;8.462;2023-11-19T07:22:13;0.10;;;0.10;;
11533;SDS011;5823;50.588;8.462;2023-11-19T07:24:40;0.10;;;0.10;;
11533;SDS011;5823;50.588;8.462;2023-11-19T07:27:06;0.10;;;0.10;;
11533;SDS011;5823;50.588;8.462;2023-11-19T07:29:33;0.10;;;0.10;;
11533;SDS011;5823;50.588;8.462;2023-11-19T07:32:00;0.00;;;0.00;;
11533;SDS011;5823;50.588;8.462;2023-11-19T07:34:27;0.10;;;0.10;;
11533;SDS011;5823;50.588;8.462;2023-11-19T07:36:55;0.10;;;0.10;;
11533;SDS011;5823;50.588;8.462;2023-11-19T07:39:24;0.10;;;0.10;;
11533;SDS011;5823;50.588;8.462;2023-11-19T07:41:50;0.10;;;0.10;;
11533;SDS011;5823;50.588;8.462;2023-11-19T07:44:16;0.10;;;0.10;;
11533;SDS011;5823;50.588;8.462;2023-11-19T07:46:43;0.10;;;0.10;;
11533;SDS011;5823;50.588;8.462;2023-11-19T07:49:10;0.10;;;0.10;;
11533;SDS011;5823;50.588;8.462;2023-11-19T07:51:36;0.10;;;0.10;;
11533;SDS011;5823;50.588;8.462;2023-11-19T07:54:04;0.10;;;0.10;;
11533;SDS011;5823;50.588;8.462;2023-11-19T07:56:31;0.05;;;0.05;;
11533;SDS011;5823;50.588;8.462;2023-11-19T07:58:57;0.10;;;0.10;;
11533;SDS011;5823;50.588;8.462;2023-11-19T08:01:23;0.00;;;0.00;;
11533;SDS011;5823;50.588;8.462;2023-11-19T08:03:50;0.10;;;0.10;;
11533;SDS011;5823;50.588;8.462;2023-11-19T08:06:16;0.15;;;0.15;;
11533;SDS011;5823;50.588;8.462;2023-11-19T08:08:42;0.03;;;0.03;;
11533;SDS011;5823;50.588;8.462;2023-11-19T08:11:10;0.20;;;0.20;;
11533;SDS011;5823;50.588;8.462;2023-11-19T08:13:36;0.10;;;0.10;;
11533;SDS011;5823;50.588;8.462;2023-11-19T08:16:02;0.03;;;0.00;;
11533;SDS011;5823;50.588;8.462;2023-11-19T08:18:28;0.00;;;0.00;;
11533;SDS011;5823;50.588;8.462;2023-11-19T08:20:55;0.00;;;0.00;;
11533;SDS011;5823;50.588;8.462;2023-11-19T08:23:23;0.00;;;0.00;;
11533;SDS011;5823;50.588;8.462;2023-11-19T08:25:50;0.08;;;0.08;;
11533;SDS011;5823;50.588;8.462;2023-11-19T08:28:18;0.10;;;0.08;;
11533;SDS011;5823;50.588;8.462;2023-11-19T08:30:44;1.05;;;0.08;;
11533;SDS011;5823;50.588;8.462;2023-11-19T08:33:11;0.13;;;0.13;;
11533;SDS011;5823;50.588;8.462;2023-11-19T08:35:37;0.25;;;0.20;;
11533;SDS011;5823;50.588;8.462;2023-11-19T08:38:03;0.00;;;0.00;;
11533;SDS011;5823;50.588;8.462;2023-11-19T08:40:29;0.03;;;0.00;;
11533;SDS011;5823;50.588;8.462;2023-11-19T08:42:56;0.22;;;0.10;;
11533;SDS011;5823;50.588;8.462;2023-11-19T08:45:24;0.00;;;0.00;;
11533;SDS011;5823;50.588;8.462;2023-11-19T08:47:50;0.10;;;0.10;;
11533;SDS011;5823;50.588;8.462;2023-11-19T08:50:17;0.40;;;0.22;;
11533;SDS011;5823;50.588;8.462;2023-11-19T08:52:43;0.40;;;0.10;;
11533;SDS011;5823;50.588;8.462;2023-11-19T08:55:09;0.17;;;0.10;;
11533;SDS011;5823;50.588;8.462;2023-11-19T08:57:36;0.00;;;0.00;;
11533;SDS011;5823;50.588;8.462;2023-11-19T09:00:03;0.20;;;0.20;;
11533;SDS011;5823;50.588;8.462;2023-11-19T09:02:34;0.10;;;0.10;;
11533;SDS011;5823;50.588;8.462;2023-11-19T09:05:00;0.03;;;0.03;;
11533;SDS011;5823;50.588;8.462;2023-11-19T09:07:26;0.22;;;0.22;;
11533;SDS011;5823;50.588;8.462;2023-11-19T09:09:53;0.50;;;0.30;;
11533;SDS011;5823;50.588;8.462;2023-11-19T09:12:19;0.73;;;0.35;;
11533;SDS011;5823;50.588;8.462;2023-11-19T09:14:45;0.20;;;0.20;;
11533;SDS011;5823;50.588;8.462;2023-11-19T09:17:11;0.10;;;0.10;;
11533;SDS011;5823;50.588;8.462;2023-11-19T09:19:39;0.85;;;0.10;;
11533;SDS011;5823;50.588;8.462;2023-11-19T09:22:05;0.13;;;0.10;;
11533;SDS011;5823;50.588;8.462;2023-11-19T09:24:31;0.50;;;0.30;;
11533;SDS011;5823;50.588;8.462;2023-11-19T09:26:58;0.28;;;0.17;;
11533;SDS011;5823;50.588;8.462;2023-11-19T09:29:25;0.10;;;0.10;;
11533;SDS011;5823;50.588;8.462;2023-11-19T09:31:51;0.28;;;0.28;;
11533;SDS011;5823;50.588;8.462;2023-11-19T09:34:17;0.10;;;0.10;;
11533;SDS011;5823;50.588;8.462;2023-11-19T09:36:45;0.22;;;0.20;;
11533;SDS011;5823;50.588;8.462;2023-11-19T09:39:11;0.05;;;0.05;;
11533;SDS011;5823;50.588;8.462;2023-11-19T09:41:39;0.10;;;0.10;;
11533;SDS011;5823;50.588;8.462;2023-11-19T09:44:07;0.20;;;0.20;;
11533;SDS011;5823;50.588;8.462;2023-11-19T09:46:34;0.40;;;0.22;;
11533;SDS011;5823;50.588;8.462;2023-11-19T09:49:00;0.95;;;0.35;;
11533;SDS011;5823;50.588;8.462;2023-11-19T09:51:29;1.63;;;0.65;;
11533;SDS011;5823;50.588;8.462;2023-11-19T09:53:56;0.98;;;0.50;;
11533;SDS011;5823;50.588;8.462;2023-11-19T09:56:23;0.57;;;0.30;;
11533;SDS011;5823;50.588;8.462;2023-11-19T09:58:49;1.85;;;1.02;;
11533;SDS011;5823;50.588;8.462;2023-11-19T10:01:15;0.60;;;0.60;;
11533;SDS011;5823;50.588;8.462;2023-11-19T10:03:42;1.02;;;0.55;;
11533;SDS011;5823;50.588;8.462;2023-11-19T10:06:09;1.40;;;0.40;;
11533;SDS011;5823;50.588;8.462;2023-11-19T10:08:36;0.10;;;0.00;;
11533;SDS011;5823;50.588;8.462;2023-11-19T10:11:05;1.70;;;0.38;;
11533;SDS011;5823;50.588;8.462;2023-11-19T10:13:31;0.73;;;0.40;;
11533;SDS011;5823;50.588;8.462;2023-11-19T10:15:59;1.00;;;0.50;;
11533;SDS011;5823;50.588;8.462;2023-11-19T10:18:29;1.85;;;0.70;;
11533;SDS011;5823;50.588;8.462;2023-11-19T10:20:55;1.55;;;0.50;;
11533;SDS011;5823;50.588;8.462;2023-11-19T10:23:22;0.50;;;0.40;;
11533;SDS011;5823;50.588;8.462;2023-11-19T10:25:48;1.77;;;0.52;;
11533;SDS011;5823;50.588;8.462;2023-11-19T10:28:20;0.45;;;0.40;;
11533;SDS011;5823;50.588;8.462;2023-11-19T10:30:46;0.32;;;0.30;;
11533;SDS011;5823;50.588;8.462;2023-11-19T10:33:14;1.38;;;0.25;;
11533;SDS011;5823;50.588;8.462;2023-11-19T10:35:51;0.43;;;0.35;;
11533;SDS011;5823;50.588;8.462;2023-11-19T10:38:18;1.67;;;0.80;;
11533;SDS011;5823;50.588;8.462;2023-11-19T10:40:45;0.75;;;0.30;;
11533;SDS011;5823;50.588;8.462;2023-11-19T10:43:11;1.55;;;0.40;;
11533;SDS011;5823;50.588;8.462;2023-11-19T10:45:39;0.80;;;0.63;;
11533;SDS011;5823;50.588;8.462;2023-11-19T10:48:06;0.60;;;0.35;;
11533;SDS011;5823;50.588;8.462;2023-11-19T10:50:32;0.95;;;0.60;;
11533;SDS011;5823;50.588;8.462;2023-11-19T10:52:59;0.50;;;0.30;;
11533;SDS011;5823;50.588;8.462;2023-11-19T10:55:26;0.47;;;0.30;;
11533;SDS011;5823;50.588;8.462;2023-11-19T10:57:52;1.38;;;0.57;;
11533;SDS011;5823;50.588;8.462;2023-11-19T11:00:19;1.50;;;0.57;;
11533;SDS011;5823;50.588;8.462;2023-11-19T11:02:47;1.58;;;0.90;;
11533;SDS011;5823;50.588;8.462;2023-11-19T11:05:16;1.08;;;0.75;;
11533;SDS011;5823;50.588;8.462;2023-11-19T11:07:42;1.75;;;0.52;;
11533;SDS011;5823;50.588;8.462;2023-11-19T11:10:10;0.73;;;0.50;;
11533;SDS011;5823;50.588;8.462;2023-11-19T11:12:37;1.20;;;0.50;;
11533;SDS011;5823;50.588;8.462;2023-11-19T11:15:05;1.95;;;0.80;;
11533;SDS011;5823;50.588;8.462;2023-11-19T11:17:32;0.60;;;0.40;;
11533;SDS011;5823;50.588;8.462;2023-11-19T11:20:00;3.10;;;1.02;;
11533;SDS011;5823;50.588;8.462;2023-11-19T11:22:27;2.25;;;1.05;;
11533;SDS011;5823;50.588;8.462;2023-11-19T11:25:05;2.30;;;0.85;;
11533;SDS011;5823;50.588;8.462;2023-11-19T11:27:48;1.60;;;0.68;;
11533;SDS011;5823;50.588;8.462;2023-11-19T11:30:20;1.05;;;0.63;;
11533;SDS011;5823;50.588;8.462;2023-11-19T11:32:54;1.15;;;0.43;;
11533;SDS011;5823;50.588;8.462;2023-11-19T11:35:29;0.75;;;0.55;;
11533;SDS011;5823;50.588;8.462;2023-11-19T11:38:00;0.60;;;0.50;;
11533;SDS011;5823;50.588;8.462;2023-11-19T11:40:27;1.88;;;0.60;;
11533;SDS011;5823;50.588;8.462;2023-11-19T11:42:54;2.10;;;0.75;;
11533;SDS011;5823;50.588;8.462;2023-11-19T11:45:20;1.00;;;0.77;;
11533;SDS011;5823;50.588;8.462;2023-11-19T11:48:05;0.80;;;0.60;;
11533;SDS011;5823;50.588;8.462;2023-11-19T11:50:33;0.73;;;0.30;;
11533;SDS011;5823;50.588;8.462;2023-11-19T11:53:16;1.15;;;0.60;;
11533;SDS011;5823;50.588;8.462;2023-11-19T11:55:53;1.65;;;0.70;;
11533;SDS011;5823;50.588;8.462;2023-11-19T11:58:20;2.22;;;0.77;;
11533;SDS011;5823;50.588;8.462;2023-11-19T12:00:46;0.95;;;0.60;;
11533;SDS011;5823;50.588;8.462;2023-11-19T12:03:13;0.90;;;0.60;;
11533;SDS011;5823;50.588;8.462;2023-11-19T12:05:42;1.13;;;0.68;;
11533;SDS011;5823;50.588;8.462;2023-11-19T12:08:08;0.43;;;0.30;;
11533;SDS011;5823;50.588;8.462;2023-11-19T12:10:37;1.30;;;0.60;;
11533;SDS011;5823;50.588;8.462;2023-11-19T12:13:04;1.00;;;0.77;;
11533;SDS011;5823;50.588;8.462;2023-11-19T12:15:32;2.38;;;0.90;;
11533;SDS011;5823;50.588;8.462;2023-11-19T12:17:58;1.75;;;0.77;;
11533;SDS011;5823;50.588;8.462;2023-11-19T12:20:25;1.40;;;0.60;;
11533;SDS011;5823;50.588;8.462;2023-11-19T12:22:53;1.08;;;0.90;;
11533;SDS011;5823;50.588;8.462;2023-11-19T12:25:19;2.08;;;0.70;;
11533;SDS011;5823;50.588;8.462;2023-11-19T12:27:47;0.65;;;0.43;;
11533;SDS011;5823;50.588;8.462;2023-11-19T12:30:16;1.02;;;0.82;;
11533;SDS011;5823;50.588;8.462;2023-11-19T12:32:44;0.57;;;0.43;;
11533;SDS011;5823;50.588;8.462;2023-11-19T12:35:10;0.73;;;0.20;;
11533;SDS011;5823;50.588;8.462;2023-11-19T12:37:40;0.90;;;0.50;;
11533;SDS011;5823;50.588;8.462;2023-11-19T12:40:18;1.48;;;0.47;;
11533;SDS011;5823;50.588;8.462;2023-11-19T12:42:44;1.10;;;0.55;;
11533;SDS011;5823;50.588;8.462;2023-11-19T12:45:11;1.85;;;0.52;;
11533;SDS011;5823;50.588;8.462;2023-11-19T12:47:38;1.73;;;0.77;;
11533;SDS011;5823;50.588;8.462;2023-11-19T12:50:05;0.65;;;0.52;;
11533;SDS011;5823;50.588;8.462;2023-11-19T12:52:33;2.45;;;1.00;;
11533;SDS011;5823;50.588;8.462;2023-11-19T12:54:59;0.50;;;0.40;;
11533;SDS011;5823;50.588;8.462;2023-11-19T12:57:36;3.13;;;0.85;;
11533;SDS011;5823;50.588;8.462;2023-11-19T13:00:03;1.17;;;0.40;;
11533;SDS011;5823;50.588;8.462;2023-11-19T13:02:44;0.50;;;0.30;;
11533;SDS011;5823;50.588;8.462;2023-11-19T13:05:21;1.08;;;0.70;;
11533;SDS011;5823;50.588;8.462;2023-11-19T13:07:47;2.50;;;0.82;;
11533;SDS011;5823;50.588;8.462;2023-11-19T13:10:13;0.88;;;0.50;;
11533;SDS011;5823;50.588;8.462;2023-11-19T13:12:42;2.25;;;0.63;;
11533;SDS011;5823;50.588;8.462;2023-11-19T13:15:21;1.00;;;0.75;;
11533;SDS011;5823;50.588;8.462;2023-11-19T13:17:48;1.77;;;0.80;;
11533;SDS011;5823;50.588;8.462;2023-11-19T13:20:14;1.05;;;0.40;;
11533;SDS011;5823;50.588;8.462;2023-11-19T13:22:53;1.75;;;0.73;;
11533;SDS011;5823;50.588;8.462;2023-11-19T13:25:19;1.10;;;0.70;;
11533;SDS011;5823;50.588;8.462;2023-11-19T13:27:46;1.70;;;0.68;;
11533;SDS011;5823;50.588;8.462;2023-11-19T13:30:13;1.48;;;0.60;;
11533;SDS011;5823;50.588;8.462;2023-11-19T13:32:39;1.60;;;0.70;;
11533;SDS011;5823;50.588;8.462;2023-11-19T13:35:06;0.50;;;0.32;;
11533;SDS011;5823;50.588;8.462;2023-11-19T13:37:33;1.17;;;0.40;;
11533;SDS011;5823;50.588;8.462;2023-11-19T13:40:00;2.00;;;0.63;;
11533;SDS011;5823;50.588;8.462;2023-11-19T13:42:26;0.50;;;0.50;;
11533;SDS011;5823;50.588;8.462;2023-11-19T13:44:54;1.35;;;0.45;;
11533;SDS011;5823;50.588;8.462;2023-11-19T13:47:21;0.52;;;0.40;;
11533;SDS011;5823;50.588;8.462;2023-11-19T13:49:48;0.63;;;0.40;;
11533;SDS011;5823;50.588;8.462;2023-11-19T13:52:15;0.40;;;0.35;;
11533;SDS011;5823;50.588;8.462;2023-11-19T13:54:41;0.75;;;0.40;;
11533;SDS011;5823;50.588;8.462;2023-11-19T13:57:07;0.80;;;0.50;;
11533;SDS011;5823;50.588;8.462;2023-11-19T13:59:34;0.57;;;0.40;;
11533;SDS011;5823;50.588;8.462;2023-11-19T14:02:06;0.47;;;0.20;;
11533;SDS011;5823;50.588;8.462;2023-11-19T14:04:32;1.08;;;0.45;;
11533;SDS011;5823;50.588;8.462;2023-11-19T14:06:58;2.20;;;0.95;;
11533;SDS011;5823;50.588;8.462;2023-11-19T14:09:25;1.25;;;0.50;;
11533;SDS011;5823;50.588;8.462;2023-11-19T14:11:51;0.43;;;0.40;;
11533;SDS011;5823;50.588;8.462;2023-11-19T14:14:18;1.02;;;0.35;;
11533;SDS011;5823;50.588;8.462;2023-11-19T14:16:44;0.32;;;0.32;;
11533;SDS011;5823;50.588;8.462;2023-11-19T14:19:12;0.65;;;0.30;;
11533;SDS011;5823;50.588;8.462;2023-11-19T14:21:38;0.20;;;0.20;;
11533;SDS011;5823;50.588;8.462;2023-11-19T14:24:05;0.10;;;0.05;;
11533;SDS011;5823;50.588;8.462;2023-11-19T14:26:31;0.10;;;0.10;;
11533;SDS011;5823;50.588;8.462;2023-11-19T14:28:57;0.10;;;0.10;;
11533;SDS011;5823;50.588;8.462;2023-11-19T14:31:27;0.43;;;0.25;;
11533;SDS011;5823;50.588;8.462;2023-11-19T14:33:53;0.32;;;0.10;;
11533;SDS011;5823;50.588;8.462;2023-11-19T14:36:21;0.13;;;0.13;;
11533;SDS011;5823;50.588;8.462;2023-11-19T14:38:47;0.20;;;0.13;;
11533;SDS011;5823;50.588;8.462;2023-11-19T14:41:13;1.25;;;0.32;;
11533;SDS011;5823;50.588;8.462;2023-11-19T14:43:39;0.10;;;0.10;;
11533;SDS011;5823;50.588;8.462;2023-11-19T14:46:06;0.35;;;0.35;;
11533;SDS011;5823;50.588;8.462;2023-11-19T14:48:32;0.20;;;0.20;;
11533;SDS011;5823;50.588;8.462;2023-11-19T14:50:58;0.30;;;0.20;;
11533;SDS011;5823;50.588;8.462;2023-11-19T14:53:26;0.20;;;0.20;;
11533;SDS011;5823;50.588;8.462;2023-11-19T14:55:52;0.20;;;0.17;;
11533;SDS011;5823;50.588;8.462;2023-11-19T14:58:19;0.20;;;0.20;;
11533;SDS011;5823;50.588;8.462;2023-11-19T15:00:46;0.30;;;0.30;;